createdAt,value
2023-07-29T00:00:29.185Z,99829.73
2023-07-29T00:05:54.735Z,99837.98
2023-07-29T00:11:00.189Z,99843.95
2023-07-29T00:16:06.018Z,99851.14
2023-07-29T00:21:11.960Z,99850.90
2023-07-29T00:26:17.825Z,99849.80
2023-07-29T00:31:23.396Z,99857.45
2023-07-29T00:36:30.321Z,99858.81
2023-07-29T00:41:35.991Z,99860.67
2023-07-29T00:46:43.487Z,99859.34
2023-07-29T00:51:49.225Z,99861.91
2023-07-29T00:56:54.940Z,99861.05
2023-07-29T01:02:01.020Z,99862.59
2023-07-29T01:07:15.545Z,99864.93
2023-07-29T01:12:25.528Z,99875.27
2023-07-29T01:17:35.093Z,99878.99
2023-07-29T01:22:41.309Z,99881.81
2023-07-29T01:27:48.382Z,99882.70
2023-07-29T01:33:01.172Z,99887.86
2023-07-29T01:38:11.199Z,99886.04
2023-07-29T01:43:17.067Z,99890.08
2023-07-29T01:48:22.810Z,99893.80
2023-07-29T01:53:29.534Z,99898.67
2023-07-29T01:58:35.204Z,99897.69
2023-07-29T02:03:40.735Z,99903.08
2023-07-29T02:08:46.254Z,99906.08
2023-07-29T02:13:52.024Z,99912.02
2023-07-29T02:18:57.661Z,99913.29
2023-07-29T02:24:03.226Z,99913.81
2023-07-29T02:29:08.950Z,99918.91
2023-07-29T02:34:15.049Z,99925.09
2023-07-29T02:39:21.110Z,99927.66
2023-07-29T02:44:27.559Z,99925.34
2023-07-29T02:49:33.289Z,99927.42
2023-07-29T02:54:38.847Z,99925.19
2023-07-29T02:59:45.034Z,99934.02
2023-07-29T03:04:51.553Z,99935.98
2023-07-29T03:09:57.126Z,99936.78
2023-07-29T03:15:03.190Z,99936.84
2023-07-29T03:20:11.132Z,99940.58
2023-07-29T03:25:17.566Z,99942.08
2023-07-29T03:30:23.543Z,99949.14
2023-07-29T03:35:29.887Z,99955.09
2023-07-29T03:40:35.610Z,99960.18
2023-07-29T03:45:41.959Z,99967.11
2023-07-29T03:50:47.492Z,99974.27
2023-07-29T03:55:52.977Z,99974.88
2023-07-29T04:00:58.417Z,99973.40
2023-07-29T04:06:04.112Z,99976.09
2023-07-29T04:11:10.321Z,99975.41
2023-07-29T04:16:15.957Z,99987.19
2023-07-29T04:21:21.657Z,99994.27
2023-07-29T04:26:27.042Z,99992.48
2023-07-29T04:31:32.893Z,99997.25
2023-07-29T04:36:38.652Z,100002.48
2023-07-29T04:41:44.785Z,100010.05
2023-07-29T04:46:50.332Z,100017.52
2023-07-29T04:51:55.808Z,100025.48
2023-07-29T04:57:01.530Z,100023.38
2023-07-29T05:02:07.905Z,100023.23
2023-07-29T05:07:13.886Z,100028.70
2023-07-29T05:12:19.499Z,100039.39
2023-07-29T05:17:25.411Z,100042.84
2023-07-29T05:22:31.817Z,100047.71
2023-07-29T05:27:37.393Z,100049.22
2023-07-29T05:32:42.976Z,100044.82
2023-07-29T05:37:48.904Z,100045.69
2023-07-29T05:42:54.672Z,100045.99
2023-07-29T05:48:00.747Z,100051.61
2023-07-29T05:53:07.091Z,100051.16
2023-07-29T05:58:13.579Z,100055.59
2023-07-29T06:03:19.760Z,100061.89
2023-07-29T06:08:29.367Z,100061.70
2023-07-29T06:13:35.137Z,100062.92
2023-07-29T06:18:40.861Z,100070.70
2023-07-29T06:23:46.823Z,100083.21
2023-07-29T06:28:54.228Z,100082.48
2023-07-29T06:34:06.084Z,100096.27
2023-07-29T06:39:12.411Z,100102.27
2023-07-29T06:44:18.128Z,100104.98
2023-07-29T06:49:24.686Z,100100.77
2023-07-29T06:54:31.149Z,100103.16
2023-07-29T06:59:41.478Z,100104.33
2023-07-29T07:04:46.918Z,100101.67
2023-07-29T07:09:52.332Z,100099.10
2023-07-29T07:14:58.101Z,100099.49
2023-07-29T07:20:04.582Z,100094.67
2023-07-29T07:25:09.449Z,100093.06
2023-07-29T07:30:15.632Z,100091.38
2023-07-29T07:35:20.026Z,100089.97
2023-07-29T07:40:25.753Z,100088.58
2023-07-29T07:45:32.925Z,100081.78
2023-07-29T07:50:38.552Z,100087.36
2023-07-29T07:55:44.205Z,100093.80
2023-07-29T08:00:49.882Z,100094.02
2023-07-29T08:05:57.981Z,100085.93
2023-07-29T08:11:03.725Z,100085.85
2023-07-29T08:16:09.531Z,100092.42
2023-07-29T08:21:16.865Z,100085.83
2023-07-29T08:26:22.711Z,100086.48
2023-07-29T08:31:35.663Z,100081.15
2023-07-29T08:36:58.268Z,100078.45
2023-07-29T08:42:07.995Z,100074.14
2023-07-29T08:47:16.035Z,100076.19
2023-07-29T08:52:26.306Z,100073.71
2023-07-29T08:57:34.655Z,100081.06
2023-07-29T09:02:42.626Z,100081.08
2023-07-29T09:07:54.978Z,100073.11
2023-07-29T09:13:07.120Z,100074.80
2023-07-29T09:18:16.745Z,100072.58
2023-07-29T09:23:22.360Z,100072.37
2023-07-29T09:28:33.140Z,100073.77
2023-07-29T09:33:38.893Z,100074.55
2023-07-29T09:38:45.929Z,100081.36
2023-07-29T09:43:59.348Z,100077.70
2023-07-29T09:49:07.061Z,100067.18
2023-07-29T09:54:14.736Z,100066.96
2023-07-29T09:59:25.740Z,100058.91
2023-07-29T10:04:32.325Z,100056.19
2023-07-29T10:09:40.377Z,100054.55
2023-07-29T10:14:49.271Z,100055.03
2023-07-29T10:19:58.119Z,100053.43
2023-07-29T10:25:08.521Z,100059.14
2023-07-29T10:30:17.331Z,100055.92
2023-07-29T10:35:23.144Z,100047.77
2023-07-29T10:40:44.248Z,100047.30
2023-07-29T10:45:54.045Z,100042.42
2023-07-29T10:51:34.038Z,100039.15
2023-07-29T10:56:43.889Z,100036.06
2023-07-29T11:01:59.426Z,100033.59
2023-07-29T11:07:27.652Z,100033.09
2023-07-29T11:12:55.459Z,100030.22
2023-07-29T11:18:03.448Z,100031.85
2023-07-29T11:23:09.933Z,100020.54
2023-07-29T11:28:16.437Z,100013.45
2023-07-29T11:33:23.584Z,100009.25
2023-07-29T11:38:32.147Z,100004.27
2023-07-29T11:43:40.392Z,99993.55
2023-07-29T11:48:45.512Z,99986.19
2023-07-29T11:53:52.184Z,99978.77
2023-07-29T11:58:57.943Z,99975.91
2023-07-29T12:04:03.724Z,99965.41
2023-07-29T12:09:10.328Z,99955.51
2023-07-29T12:14:17.377Z,99949.73
2023-07-29T12:19:23.594Z,99948.26
2023-07-29T12:24:30.640Z,99947.43
2023-07-29T12:29:43.200Z,99940.94
2023-07-29T12:34:49.029Z,99933.85
2023-07-29T12:39:54.523Z,99935.87
2023-07-29T12:45:00.038Z,99935.44
2023-07-29T12:50:07.461Z,99927.92
2023-07-29T12:55:15.976Z,99926.96
2023-07-29T13:00:21.627Z,99921.80
2023-07-29T13:05:27.440Z,99921.27
2023-07-29T13:10:33.108Z,99916.55
2023-07-29T13:15:38.626Z,99910.92
2023-07-29T13:20:44.125Z,99911.25
2023-07-29T13:25:49.853Z,99904.17
2023-07-29T13:30:55.546Z,99896.75
2023-07-29T13:36:01.235Z,99889.83
2023-07-29T13:41:07.568Z,99885.76
2023-07-29T13:46:16.169Z,99879.32
2023-07-29T13:51:23.059Z,99881.09
2023-07-29T13:56:31.272Z,99882.52
2023-07-29T14:01:39.421Z,99877.33
2023-07-29T14:06:48.772Z,99864.77
2023-07-29T14:11:56.758Z,99860.61
2023-07-29T14:17:02.945Z,99857.48
2023-07-29T14:22:09.274Z,99854.73
2023-07-29T14:27:17.463Z,99850.20
2023-07-29T14:32:25.634Z,99847.14
2023-07-29T14:37:33.242Z,99841.94
2023-07-29T14:42:38.910Z,99838.97
2023-07-29T14:47:44.627Z,99833.48
2023-07-29T14:52:50.427Z,99832.49
2023-07-29T14:57:56.102Z,99827.11
2023-07-29T15:03:01.965Z,99827.03
2023-07-29T15:08:09.087Z,99829.18
2023-07-29T15:13:15.593Z,99824.52
2023-07-29T15:18:21.227Z,99813.74
2023-07-29T15:23:27.014Z,99804.94
2023-07-29T15:28:34.344Z,99804.34
2023-07-29T15:33:41.411Z,99795.12
2023-07-29T15:38:49.866Z,99794.19
2023-07-29T15:43:55.743Z,99802.39
2023-07-29T15:49:01.592Z,99795.83
2023-07-29T15:54:08.382Z,99792.50
2023-07-29T15:59:14.183Z,99789.55
2023-07-29T16:04:20.153Z,99788.11
2023-07-29T16:09:25.700Z,99785.77
2023-07-29T16:14:32.801Z,99784.86
2023-07-29T16:19:55.899Z,99780.09
2023-07-29T16:25:01.982Z,99778.50
2023-07-29T16:30:09.772Z,99775.02
2023-07-29T16:35:15.553Z,99767.52
2023-07-29T16:40:21.610Z,99758.23
2023-07-29T16:45:31.667Z,99750.23
2023-07-29T16:50:36.331Z,99744.38
2023-07-29T16:55:42.620Z,99727.64
2023-07-29T17:00:48.327Z,99733.42
2023-07-29T17:05:57.109Z,99736.51
2023-07-29T17:11:03.389Z,99744.17
2023-07-29T17:16:09.741Z,99744.31
2023-07-29T17:21:15.441Z,99743.80
2023-07-29T17:26:21.084Z,99747.63
2023-07-29T17:31:27.187Z,99743.77
2023-07-29T17:36:33.066Z,99740.80
2023-07-29T17:41:39.105Z,99737.02
2023-07-29T17:46:45.459Z,99735.77
2023-07-29T17:51:51.409Z,99730.58
2023-07-29T17:56:57.005Z,99727.23
2023-07-29T18:02:02.892Z,99721.73
2023-07-29T18:07:09.879Z,99719.44
2023-07-29T18:12:16.196Z,99718.52
2023-07-29T18:17:21.947Z,99715.74
2023-07-29T18:22:28.144Z,99716.48
2023-07-29T18:27:33.865Z,99718.13
2023-07-29T18:32:39.590Z,99713.30
2023-07-29T18:37:45.630Z,99716.69
2023-07-29T18:42:51.406Z,99717.77
2023-07-29T18:47:57.355Z,99721.70
2023-07-29T18:53:03.019Z,99723.51
2023-07-29T18:58:08.654Z,99726.80
2023-07-29T19:03:15.372Z,99729.64
2023-07-29T19:08:20.881Z,99728.11
2023-07-29T19:13:26.557Z,99721.08
2023-07-29T19:18:32.440Z,99706.41
2023-07-29T19:23:38.247Z,99706.57
2023-07-29T19:28:44.515Z,99706.91
2023-07-29T19:33:50.231Z,99700.86
2023-07-29T19:38:55.761Z,99694.30
2023-07-29T19:44:16.646Z,99682.61
2023-07-29T19:49:27.091Z,99676.34
2023-07-29T19:54:32.759Z,99665.23
2023-07-29T19:59:48.693Z,99660.40
2023-07-29T20:04:56.142Z,99668.77
2023-07-29T20:10:01.852Z,99676.50
2023-07-29T20:15:09.179Z,99675.44
2023-07-29T20:20:14.943Z,99682.05
2023-07-29T20:25:20.724Z,99675.86
2023-07-29T20:30:26.344Z,99675.83
2023-07-29T20:35:31.852Z,99671.38
2023-07-29T20:40:37.543Z,99666.71
2023-07-29T20:45:43.209Z,99659.10
2023-07-29T20:50:48.706Z,99657.35
2023-07-29T20:55:54.630Z,99657.42
2023-07-29T21:01:00.430Z,99664.10
2023-07-29T21:06:10.105Z,99670.98
2023-07-29T21:11:15.667Z,99705.29
2023-07-29T21:16:21.658Z,99727.06
2023-07-29T21:21:29.880Z,99789.34
2023-07-29T21:26:36.473Z,99821.92
2023-07-29T21:31:42.507Z,99818.03
2023-07-29T21:36:48.461Z,99843.89
2023-07-29T21:41:53.929Z,99852.06
2023-07-29T21:46:59.671Z,99853.49
2023-07-29T21:52:05.943Z,99852.94
2023-07-29T21:57:11.474Z,99850.19
2023-07-29T22:02:19.996Z,99849.35
2023-07-29T22:07:25.787Z,99847.92
2023-07-29T22:12:32.577Z,99857.73
2023-07-29T22:17:38.229Z,99863.94
2023-07-29T22:22:44.100Z,99856.91
2023-07-29T22:27:49.736Z,99820.63
2023-07-29T22:32:55.577Z,99795.92
2023-07-29T22:38:01.248Z,99781.44
2023-07-29T22:43:06.968Z,99764.38
2023-07-29T22:48:12.593Z,99750.29
2023-07-29T22:53:18.852Z,99735.63
2023-07-29T22:58:25.092Z,99722.67
2023-07-29T23:03:30.732Z,99698.38
2023-07-29T23:08:36.532Z,99677.94
2023-07-29T23:13:42.573Z,99663.39
2023-07-29T23:18:48.208Z,99653.73
2023-07-29T23:23:53.803Z,99637.30
2023-07-29T23:28:59.448Z,99626.43
2023-07-29T23:34:05.053Z,99614.52
2023-07-29T23:39:10.680Z,99633.49
2023-07-29T23:44:16.198Z,99653.55
2023-07-29T23:49:22.024Z,99662.92
2023-07-29T23:54:27.642Z,99677.68
2023-07-29T23:59:33.322Z,99681.92
